Pays
Station

 

Conditions  météo  pour  Orsta-Volda/Hovden  -  Norvège    Norvège

  
7 °C
    
 
 

METAR pour Orsta-Volda/Hovden :

ENOV 212120Z 22012G24KT 160V260 9999 -SHRA FEW010 SCT025 BKN034 07/03 Q1009 RMK WIND 2175FT 24024G36KT

 

Voici le bulletin pour Orsta-Volda/Hovden - Norvège.
 
Le bulletin a été fait il y a 2 heures et 14 minutes, à 21:20 UTC .
Le vent soufflait à la vitesse de 6.2 mètres par seconde avec des rafales jusqu'à 12.3 mètres par seconde de Sud-ouest (220°), variant entre Sud/Sud-est (160°) et Ouest (260°).
 
La température était de 7 °C, avec un point de rosée à 3 °C.
La pression atmosphérique était de 1009 hPa.
L'humidité relative était de 75.6%.
 
Il y avait 1 à 2/8ème de nébulosité à une hauteur de 305 mètres, 3 à 4/8ème de nébulosité à une hauteur de 762 mètres et 5 à 7/8ème de nébulosité à une hauteur de 1036 mètres.
 
La visibilité globale était de supérieure à 10 kilomètres.
 
Actuellement averses de léger/legère pluie.

 
 
 

Pays :   A   B   C   D   E   F   G   H   I   J   K   L   M   N   O   P   Q   R   S   T   U   V   W   Y   Z

 

Partenaires :  Info Météo avec Met'info
Météo Marine avec MeteoMarine.net
Infos Site  |  Infos Légales  |  Crédits  |  Confidentialité
Contactez-nous  |  Ajouter aux favoris
© 2013-2018 METAR - Tous droits réservés